Time;durP1;ratioP1;P1;durP2;ratioP2;P2;SDS_P1;SDS_P2;PMS_P1;PMS_P2;Temp;Humidity;BMP_temperature;BMP_pressure;BME280_temperature;BME280_humidity;BME280_pressure;Samples;Min_cycle;Max_cycle;Signal;HPM_P1;HPM_P2
2021/08/05 00:00:42;;;;;;;0.57;0.57;;;12.80;93.00;;;;;;2065062;28;20265;-69
2021/08/05 00:01:43;;;;;;;0.65;0.65;;;12.80;93.10;;;;;;2064299;28;20541;-66
2021/08/05 00:02:44;;;;;;;0.63;0.63;;;12.70;93.10;;;;;;2064647;28;20190;-67
2021/08/05 00:03:44;;;;;;;0.63;0.63;;;12.80;93.20;;;;;;2064738;28;20594;-66
2021/08/05 00:04:45;;;;;;;1.03;0.90;;;12.80;93.20;;;;;;2064254;28;20182;-66
2021/08/05 00:05:46;;;;;;;1.07;0.90;;;12.80;93.20;;;;;;2064445;28;20201;-66
2021/08/05 00:06:46;;;;;;;1.17;0.93;;;12.90;93.10;;;;;;2065189;28;20276;-67
2021/08/05 00:07:47;;;;;;;0.67;0.67;;;12.90;93.00;;;;;;2064698;28;20209;-66
2021/08/05 00:08:48;;;;;;;0.60;0.60;;;12.90;92.90;;;;;;2064962;28;20202;-66
2021/08/05 00:09:49;;;;;;;0.53;0.53;;;12.90;92.80;;;;;;2064999;28;20193;-66
2021/08/05 00:10:49;;;;;;;0.63;0.63;;;12.90;92.80;;;;;;2064575;28;20563;-68
2021/08/05 00:11:50;;;;;;;1.43;1.13;;;12.80;92.80;;;;;;2064519;28;20182;-66
2021/08/05 00:12:51;;;;;;;1.17;1.17;;;12.80;92.80;;;;;;2065166;28;20672;-66
2021/08/05 00:13:51;;;;;;;0.70;0.70;;;12.70;93.00;;;;;;2065116;28;20205;-66
2021/08/05 00:14:52;;;;;;;1.80;1.27;;;12.70;93.00;;;;;;2064475;28;20206;-66
2021/08/05 00:15:53;;;;;;;0.60;0.60;;;12.70;93.00;;;;;;2064393;28;20179;-67
2021/08/05 00:16:53;;;;;;;1.17;1.07;;;12.70;93.00;;;;;;2064989;28;20186;-66
2021/08/05 00:17:54;;;;;;;1.03;1.03;;;12.70;92.90;;;;;;2064951;28;20218;-66
2021/08/05 00:18:55;;;;;;;2.20;1.33;;;12.70;93.00;;;;;;2065210;28;20182;-66
2021/08/05 00:19:55;;;;;;;0.63;0.63;;;12.70;93.00;;;;;;2065291;28;20174;-66
2021/08/05 00:20:56;;;;;;;0.43;0.43;;;12.70;93.10;;;;;;2064328;28;20186;-66
2021/08/05 00:21:57;;;;;;;2.90;2.07;;;12.60;93.10;;;;;;2064611;28;20731;-66
2021/08/05 00:22:57;;;;;;;1.30;1.20;;;12.60;93.20;;;;;;2064403;28;20178;-66
2021/08/05 00:23:58;;;;;;;0.70;0.70;;;12.60;93.20;;;;;;2064799;28;20226;-66
2021/08/05 00:24:59;;;;;;;1.33;1.33;;;12.60;93.20;;;;;;2064346;28;20205;-66
2021/08/05 00:26:00;;;;;;;1.13;1.07;;;12.60;93.30;;;;;;2064403;28;20257;-66
2021/08/05 00:27:01;;;;;;;1.50;1.27;;;12.60;93.30;;;;;;2056155;28;20171;-66
2021/08/05 00:28:02;;;;;;;3.63;1.50;;;12.60;93.30;;;;;;2064416;28;20269;-66
2021/08/05 00:29:02;;;;;;;1.10;1.10;;;12.60;93.30;;;;;;2064796;28;20190;-66
2021/08/05 00:30:04;;;;;;;3.23;1.50;;;12.60;93.90;;;;;;2064877;28;20186;-66
2021/08/05 00:31:05;;;;;;;2.30;1.10;;;12.60;93.30;;;;;;2065099;28;20186;-67
2021/08/05 00:32:06;;;;;;;0.87;0.83;;;12.60;93.30;;;;;;2064359;28;20190;-66
2021/08/05 00:33:07;;;;;;;1.30;1.20;;;12.60;93.30;;;;;;2064381;28;20182;-67
2021/08/05 00:34:08;;;;;;;0.97;0.87;;;12.50;93.20;;;;;;2065071;28;20170;-66
2021/08/05 00:35:09;;;;;;;0.67;0.67;;;12.60;93.30;;;;;;2064806;28;20210;-66
2021/08/05 00:36:10;;;;;;;0.70;0.70;;;12.50;93.30;;;;;;2064310;28;20174;-66
2021/08/05 00:37:10;;;;;;;1.17;1.07;;;12.50;93.40;;;;;;2064262;28;20178;-66
2021/08/05 00:38:11;;;;;;;0.80;0.80;;;12.50;93.40;;;;;;2064998;28;20213;-66
2021/08/05 00:39:12;;;;;;;1.53;0.83;;;12.50;93.40;;;;;;2064893;28;20178;-66
2021/08/05 00:40:13;;;;;;;2.53;1.67;;;12.50;93.40;;;;;;2064258;28;20649;-66
2021/08/05 00:41:15;;;;;;;1.35;1.30;;;12.40;93.50;;;;;;2064322;28;20672;-66
2021/08/05 00:42:16;;;;;;;2.50;1.48;;;12.40;93.50;;;;;;2056489;28;20270;-66
2021/08/05 00:43:17;;;;;;;1.50;1.20;;;12.40;93.60;;;;;;2064149;28;20174;-66
2021/08/05 00:44:17;;;;;;;1.33;1.27;;;12.40;93.60;;;;;;2064853;28;20217;-66
2021/08/05 00:45:18;;;;;;;5.20;1.17;;;12.40;93.50;;;;;;2064744;28;20279;-66
2021/08/05 00:46:19;;;;;;;1.03;0.97;;;12.40;93.60;;;;;;2065030;28;20193;-66
2021/08/05 00:47:20;;;;;;;1.10;1.00;;;12.30;93.60;;;;;;2064769;28;20178;-66
2021/08/05 00:48:20;;;;;;;2.07;1.27;;;12.30;93.70;;;;;;2064128;28;20187;-66
2021/08/05 00:49:21;;;;;;;1.43;0.70;;;12.30;93.70;;;;;;2064152;28;20186;-67
2021/08/05 00:50:22;;;;;;;1.10;1.00;;;12.30;93.70;;;;;;2064311;28;20202;-66
2021/08/05 00:51:23;;;;;;;0.70;0.70;;;12.30;93.80;;;;;;2064139;28;20827;-66
2021/08/05 00:52:24;;;;;;;0.80;0.80;;;12.30;93.80;;;;;;2064816;28;20221;-67
2021/08/05 00:53:27;;;;;;;1.05;1.05;;;12.30;93.80;;;;;;2064750;28;20182;-66
2021/08/05 00:54:28;;;;;;;1.08;0.98;;;12.40;93.80;;;;;;2064788;28;20178;-66
2021/08/05 00:55:29;;;;;;;0.83;0.83;;;12.40;93.70;;;;;;2064252;28;20728;-67
2021/08/05 00:56:30;;;;;;;1.27;1.10;;;12.30;93.70;;;;;;2064304;28;20186;-66
2021/08/05 00:57:31;;;;;;;1.15;1.13;;;12.40;93.60;;;;;;2064066;28;20657;-66
2021/08/05 00:58:32;;;;;;;1.92;1.48;;;12.40;93.60;;;;;;2064150;28;20194;-66
2021/08/05 00:59:33;;;;;;;1.50;1.27;;;12.40;93.60;;;;;;2064199;28;20379;-66
2021/08/05 01:00:34;;;;;;;1.53;1.43;;;12.40;93.60;;;;;;2056136;28;20215;-66
2021/08/05 01:01:41;;;;;;;1.15;0.95;;;12.50;93.60;;;;;;2056311;28;20259;-66
2021/08/05 01:02:57;;;;;;;1.00;0.95;;;12.50;93.60;;;;;;2064471;28;20171;-66
2021/08/05 01:04:00;;;;;;;0.98;0.95;;;12.50;93.60;;;;;;2058099;28;20163;-67
2021/08/05 01:05:01;;;;;;;0.85;0.75;;;12.50;93.60;;;;;;2064366;28;20206;-66
2021/08/05 01:06:35;;;;;;;1.23;1.13;;;12.50;93.50;;;;;;2055996;28;20183;-66
2021/08/05 01:07:55;;;;;;;0.73;0.73;;;12.50;93.40;;;;;;2060603;28;20241;-66
2021/08/05 01:09:06;;;;;;;2.78;2.13;;;12.50;93.40;;;;;;2058802;28;20226;-66
2021/08/05 01:10:23;;;;;;;0.95;0.88;;;12.40;93.50;;;;;;2057652;28;20603;-66
2021/08/05 01:11:29;;;;;;;1.15;1.13;;;12.40;93.70;;;;;;2050331;28;20171;-66
2021/08/05 01:12:52;;;;;;;1.10;1.00;;;12.40;93.70;;;;;;2049517;28;20231;-66
2021/08/05 01:13:59;;;;;;;0.50;0.50;;;12.40;93.50;;;;;;2064495;28;20166;-67
2021/08/05 01:15:08;;;;;;;1.15;1.10;;;12.50;93.60;;;;;;2064175;28;20629;-66
2021/08/05 01:16:20;;;;;;;0.88;0.88;;;12.50;93.50;;;;;;2065996;28;20596;-66
2021/08/05 01:17:23;;;;;;;1.48;1.35;;;12.50;93.60;;;;;;2065284;28;20649;-66
2021/08/05 01:18:31;;;;;;;0.63;0.63;;;12.40;93.60;;;;;;2064989;28;20231;-66
2021/08/05 01:19:56;;;;;;;1.38;1.30;;;12.50;93.60;;;;;;2065897;28;20174;-66
2021/08/05 01:21:04;;;;;;;1.48;1.38;;;12.40;93.70;;;;;;2065826;28;20174;-66
2021/08/05 01:22:50;;;;;;;2.17;1.15;;;12.40;93.70;;;;;;2065980;28;20591;-67
2021/08/05 01:23:57;;;;;;;1.17;1.08;;;12.40;93.70;;;;;;2056814;28;20201;-67
2021/08/05 01:25:15;;;;;;;1.10;1.10;;;12.40;93.90;;;;;;2058527;28;20213;-66
2021/08/05 01:26:29;;;;;;;1.05;0.95;;;12.40;94.00;;;;;;2065725;28;20170;-66
2021/08/05 01:27:31;;;;;;;0.85;0.85;;;12.40;93.90;;;;;;2065887;28;20209;-66
2021/08/05 01:28:35;;;;;;;2.17;1.10;;;12.30;93.90;;;;;;2066278;28;20665;-66
2021/08/05 01:29:38;;;;;;;1.65;1.00;;;12.40;93.80;;;;;;2065463;28;20186;-67
2021/08/05 01:30:44;;;;;;;0.80;0.80;;;12.40;93.80;;;;;;2057896;28;20210;-66
2021/08/05 01:31:45;;;;;;;1.42;1.33;;;12.40;93.80;;;;;;2058152;28;20187;-66
2021/08/05 01:32:47;;;;;;;0.82;0.80;;;12.50;93.70;;;;;;2057747;28;20190;-66
2021/08/05 01:33:50;;;;;;;0.77;0.77;;;12.50;93.70;;;;;;2065693;28;20327;-67
2021/08/05 01:34:50;;;;;;;0.95;0.95;;;12.50;93.80;;;;;;2057748;28;20558;-66
2021/08/05 01:35:53;;;;;;;0.87;0.80;;;12.40;93.80;;;;;;2065354;28;20188;-66
2021/08/05 01:36:54;;;;;;;1.00;0.90;;;12.40;93.90;;;;;;2065662;28;20504;-66
2021/08/05 01:37:56;;;;;;;0.95;0.90;;;12.40;93.90;;;;;;2057432;28;20261;-66
2021/08/05 01:38:58;;;;;;;1.58;1.48;;;12.40;93.90;;;;;;2065624;28;20179;-66
2021/08/05 01:39:59;;;;;;;1.35;1.23;;;12.50;93.90;;;;;;2065346;28;20650;-66
2021/08/05 01:41:04;;;;;;;1.73;1.13;;;12.50;93.80;;;;;;2065481;28;20178;-66
2021/08/05 01:42:07;;;;;;;1.80;0.88;;;12.50;93.80;;;;;;2065435;28;20213;-68
2021/08/05 01:43:09;;;;;;;1.02;1.02;;;12.50;93.70;;;;;;2057738;28;20179;-66
2021/08/05 01:44:11;;;;;;;3.63;1.20;;;12.50;93.60;;;;;;2057602;28;20182;-66
2021/08/05 01:45:15;;;;;;;1.75;1.30;;;12.50;93.60;;;;;;2065481;28;20233;-67
2021/08/05 01:46:19;;;;;;;1.75;1.20;;;12.50;93.70;;;;;;2065264;28;20175;-66
2021/08/05 01:47:21;;;;;;;1.65;1.30;;;12.50;93.70;;;;;;2062162;28;20740;-66
2021/08/05 01:48:23;;;;;;;2.70;1.42;;;12.50;93.60;;;;;;2065347;28;20182;-66
2021/08/05 01:49:24;;;;;;;1.10;1.10;;;12.50;93.60;;;;;;2065407;28;20265;-66
2021/08/05 01:50:25;;;;;;;1.35;0.80;;;12.50;93.50;;;;;;2065395;28;20182;-67
2021/08/05 01:51:27;;;;;;;9.27;1.40;;;12.50;93.60;;;;;;2057461;28;20187;-66
2021/08/05 01:52:28;;;;;;;1.20;1.20;;;12.50;93.50;;;;;;2057367;28;20182;-66
2021/08/05 01:53:29;;;;;;;1.10;1.00;;;12.50;93.50;;;;;;2065789;28;20178;-66
2021/08/05 01:54:30;;;;;;;0.70;0.70;;;12.40;93.50;;;;;;2065395;28;20210;-67
2021/08/05 01:55:30;;;;;;;0.73;0.73;;;12.40;93.50;;;;;;2066191;28;20210;-67
2021/08/05 01:56:32;;;;;;;0.80;0.77;;;12.40;93.50;;;;;;2065469;28;20183;-67
2021/08/05 01:57:33;;;;;;;1.42;1.10;;;12.40;94.00;;;;;;2065284;28;20187;-67
2021/08/05 01:58:34;;;;;;;1.27;0.93;;;12.40;93.70;;;;;;2065516;28;20186;-66
2021/08/05 01:59:34;;;;;;;0.80;0.80;;;12.30;93.40;;;;;;2065448;28;20182;-66
2021/08/05 02:00:36;;;;;;;0.70;0.70;;;12.30;93.30;;;;;;2066001;28;20183;-67
2021/08/05 02:01:36;;;;;;;0.50;0.50;;;12.20;93.30;;;;;;2057351;28;20278;-66
2021/08/05 02:02:37;;;;;;;1.53;0.70;;;12.20;93.30;;;;;;2057261;28;20179;-66
2021/08/05 02:03:38;;;;;;;1.58;0.90;;;12.20;93.30;;;;;;2065376;28;20554;-66
2021/08/05 02:05:04;;;;;;;0.57;0.57;;;12.20;93.30;;;;;;2065366;28;20182;-67
2021/08/05 02:06:10;;;;;;;1.15;1.05;;;12.10;93.20;;;;;;2065385;28;20518;-66
2021/08/05 02:07:16;;;;;;;0.57;0.57;;;12.10;93.20;;;;;;2058004;28;20187;-66
2021/08/05 02:08:22;;;;;;;0.68;0.65;;;12.00;93.20;;;;;;2065566;28;20167;-66
2021/08/05 02:09:29;;;;;;;0.60;0.60;;;12.00;93.20;;;;;;2066101;28;20174;-66
2021/08/05 02:10:35;;;;;;;1.10;0.95;;;12.00;93.30;;;;;;2065391;28;20194;-66
2021/08/05 02:11:43;;;;;;;0.98;0.88;;;12.00;93.30;;;;;;2065486;28;20166;-66
2021/08/05 02:12:49;;;;;;;0.93;0.88;;;11.90;93.20;;;;;;2058353;28;20571;-66
2021/08/05 02:13:51;;;;;;;2.78;0.73;;;11.90;93.20;;;;;;2065475;28;20170;-67
2021/08/05 02:14:53;;;;;;;0.70;0.70;;;11.90;93.30;;;;;;2065292;28;20230;-66
2021/08/05 02:16:00;;;;;;;0.98;0.68;;;11.80;93.30;;;;;;2057367;28;20242;-66
2021/08/05 02:17:02;;;;;;;1.48;0.98;;;11.80;93.30;;;;;;2049768;28;20184;-66
2021/08/05 02:18:05;;;;;;;1.38;0.90;;;11.80;93.30;;;;;;2049578;28;20222;-67
2021/08/05 02:19:08;;;;;;;0.93;0.93;;;11.80;93.40;;;;;;2049178;28;20205;-67
2021/08/05 02:20:12;;;;;;;1.48;1.10;;;11.80;93.40;;;;;;2057478;28;20258;-65
2021/08/05 02:21:17;;;;;;;0.55;0.55;;;11.80;93.40;;;;;;2065275;28;20185;-65
2021/08/05 02:22:18;;;;;;;1.52;1.35;;;11.80;93.30;;;;;;2065146;28;20637;-65
2021/08/05 02:23:20;;;;;;;0.88;0.88;;;11.80;93.30;;;;;;2057348;28;20176;-65
2021/08/05 02:24:27;;;;;;;1.10;1.10;;;11.80;93.30;;;;;;2065089;28;20183;-65
2021/08/05 02:25:28;;;;;;;1.23;1.13;;;11.80;93.30;;;;;;2065891;28;20203;-66
2021/08/05 02:26:29;;;;;;;1.05;1.05;;;11.80;93.30;;;;;;2064960;28;20178;-65
2021/08/05 02:27:30;;;;;;;1.10;1.00;;;11.80;93.40;;;;;;2064239;28;20712;-65
2021/08/05 02:28:31;;;;;;;0.90;0.90;;;11.70;93.30;;;;;;2065361;28;20182;-65
2021/08/05 02:29:32;;;;;;;4.07;1.42;;;11.70;93.40;;;;;;2065130;28;20204;-65
2021/08/05 02:30:34;;;;;;;0.63;0.63;;;11.70;93.50;;;;;;2057198;28;20237;-65
2021/08/05 02:31:36;;;;;;;0.52;0.52;;;11.70;93.40;;;;;;2057454;28;20234;-66
2021/08/05 02:32:39;;;;;;;0.68;0.68;;;11.80;93.40;;;;;;2065469;28;20182;-65
2021/08/05 02:33:41;;;;;;;1.30;1.20;;;11.80;93.40;;;;;;2065245;28;20665;-65
2021/08/05 02:34:42;;;;;;;0.88;0.88;;;11.80;93.50;;;;;;2065111;28;20186;-65
2021/08/05 02:35:47;;;;;;;1.38;1.27;;;11.70;93.50;;;;;;2065005;28;20186;-65
2021/08/05 02:36:47;;;;;;;0.80;0.75;;;11.80;93.60;;;;;;2065287;28;20209;-65
2021/08/05 02:37:48;;;;;;;0.70;0.70;;;11.70;93.70;;;;;;2065527;28;20187;-70
2021/08/05 02:38:50;;;;;;;0.63;0.63;;;11.70;93.70;;;;;;2065127;28;20269;-69
2021/08/05 02:39:50;;;;;;;0.93;0.93;;;11.70;93.70;;;;;;2065101;28;20674;-67
2021/08/05 02:40:53;;;;;;;0.67;0.67;;;11.80;93.80;;;;;;2065236;28;20181;-65
2021/08/05 02:41:54;;;;;;;0.98;0.55;;;11.80;93.80;;;;;;2065042;28;20178;-65
2021/08/05 02:42:57;;;;;;;1.17;0.65;;;11.80;93.80;;;;;;2065216;28;20641;-66
2021/08/05 02:43:59;;;;;;;0.52;0.52;;;11.80;93.70;;;;;;2057443;28;20179;-66
2021/08/05 02:45:00;;;;;;;0.60;0.60;;;11.80;93.70;;;;;;2057215;28;20575;-65
2021/08/05 02:46:02;;;;;;;2.20;0.70;;;11.80;93.60;;;;;;2057133;28;20218;-65
2021/08/05 02:47:04;;;;;;;0.47;0.47;;;11.90;93.50;;;;;;2057227;28;20183;-66
2021/08/05 02:48:08;;;;;;;0.90;0.80;;;11.90;93.40;;;;;;2063812;28;20501;-65
2021/08/05 02:49:09;;;;;;;0.60;0.60;;;11.80;93.50;;;;;;2049342;28;20266;-66
2021/08/05 02:50:11;;;;;;;0.30;0.30;;;11.80;93.50;;;;;;2049011;28;20180;-65
2021/08/05 02:51:12;;;;;;;0.77;0.77;;;11.80;93.70;;;;;;2057341;28;20426;-66
2021/08/05 02:52:13;;;;;;;0.77;0.77;;;11.80;93.80;;;;;;2064939;28;20249;-65
2021/08/05 02:53:21;;;;;;;0.80;0.80;;;11.80;93.80;;;;;;2065261;28;20995;-65
2021/08/05 02:54:22;;;;;;;0.82;0.77;;;11.80;93.80;;;;;;2048997;28;20950;-65
2021/08/05 02:55:23;;;;;;;1.33;1.23;;;11.80;93.70;;;;;;2049177;28;20215;-65
2021/08/05 02:56:24;;;;;;;0.43;0.43;;;11.80;94.30;;;;;;2056924;28;20743;-65
2021/08/05 02:57:26;;;;;;;1.37;0.97;;;11.80;93.70;;;;;;2048731;28;20192;-65
2021/08/05 02:58:29;;;;;;;0.68;0.68;;;11.80;93.60;;;;;;2049106;28;20222;-66
2021/08/05 02:59:30;;;;;;;0.75;0.75;;;11.80;93.50;;;;;;2057589;28;20179;-65
2021/08/05 03:00:31;;;;;;;0.60;0.60;;;11.90;93.50;;;;;;2056999;28;20179;-65
2021/08/05 03:01:32;;;;;;;1.70;1.03;;;11.90;93.50;;;;;;2057103;28;20646;-65
2021/08/05 03:02:34;;;;;;;0.80;0.77;;;11.90;93.50;;;;;;2057500;28;20533;-65
2021/08/05 03:03:35;;;;;;;0.43;0.43;;;11.80;93.50;;;;;;2057543;28;20183;-65
2021/08/05 03:04:36;;;;;;;1.20;1.10;;;11.80;93.50;;;;;;2057597;28;20237;-65
2021/08/05 03:05:37;;;;;;;1.10;1.00;;;11.80;93.50;;;;;;2057685;28;20183;-65
2021/08/05 03:06:40;;;;;;;0.60;0.60;;;11.80;93.60;;;;;;2057547;28;20229;-65
2021/08/05 03:07:42;;;;;;;0.52;0.52;;;11.70;93.70;;;;;;2057460;28;20175;-65
2021/08/05 03:08:43;;;;;;;0.52;0.52;;;11.60;93.70;;;;;;2056967;28;20179;-65
2021/08/05 03:09:43;;;;;;;0.80;0.80;;;11.60;93.70;;;;;;2056968;28;20190;-66
2021/08/05 03:10:44;;;;;;;0.70;0.70;;;11.60;93.60;;;;;;2057657;28;20182;-65
2021/08/05 03:11:45;;;;;;;0.87;0.80;;;11.60;93.60;;;;;;2057716;28;20225;-65
2021/08/05 03:12:45;;;;;;;0.83;0.80;;;11.60;93.60;;;;;;2057721;28;20635;-65
2021/08/05 03:13:46;;;;;;;0.40;0.40;;;11.60;93.60;;;;;;2057668;28;20238;-65
2021/08/05 03:14:47;;;;;;;0.40;0.40;;;11.60;93.60;;;;;;2056946;28;20171;-66
2021/08/05 03:15:47;;;;;;;0.60;0.60;;;11.60;93.60;;;;;;2057106;28;20646;-65
2021/08/05 03:16:48;;;;;;;2.00;0.70;;;11.50;93.60;;;;;;2056828;28;20219;-67
2021/08/05 03:17:49;;;;;;;1.37;1.27;;;11.50;93.60;;;;;;2040849;29;20212;-66
2021/08/05 03:18:50;;;;;;;0.70;0.70;;;11.50;93.60;;;;;;2048885;29;20575;-65
2021/08/05 03:19:50;;;;;;;3.03;1.03;;;11.50;93.70;;;;;;2048823;29;20194;-66
2021/08/05 03:20:51;;;;;;;0.70;0.63;;;11.50;93.70;;;;;;2048918;28;20718;-65
2021/08/05 03:21:52;;;;;;;0.60;0.60;;;11.50;93.60;;;;;;2057549;28;20230;-65
2021/08/05 03:22:53;;;;;;;0.93;0.80;;;11.50;93.70;;;;;;2056905;28;20266;-65
2021/08/05 03:23:54;;;;;;;0.73;0.73;;;11.40;94.20;;;;;;2056776;28;20647;-65
2021/08/05 03:24:55;;;;;;;0.40;0.40;;;11.40;93.70;;;;;;2056590;28;20206;-65
2021/08/05 03:25:55;;;;;;;0.50;0.50;;;11.40;93.70;;;;;;2056913;28;20674;-65
2021/08/05 03:26:57;;;;;;;2.27;0.80;;;11.30;93.70;;;;;;2057255;28;20206;-65
2021/08/05 03:27:57;;;;;;;1.33;0.85;;;11.30;93.80;;;;;;2056880;28;20182;-65
2021/08/05 03:28:58;;;;;;;0.50;0.50;;;11.30;93.90;;;;;;2048846;28;20222;-65
2021/08/05 03:29:59;;;;;;;0.87;0.77;;;11.30;93.90;;;;;;2056629;28;20282;-65
2021/08/05 03:31:00;;;;;;;0.77;0.77;;;11.30;93.90;;;;;;2057422;28;20183;-66
2021/08/05 03:32:00;;;;;;;0.70;0.70;;;11.20;93.80;;;;;;2057488;28;20213;-65
2021/08/05 03:33:01;;;;;;;0.83;0.60;;;11.30;93.90;;;;;;2057375;28;20189;-65
2021/08/05 03:34:02;;;;;;;0.80;0.80;;;11.30;93.80;;;;;;2057385;28;20183;-65
2021/08/05 03:35:03;;;;;;;0.57;0.57;;;11.30;93.90;;;;;;2057389;28;20199;-65
2021/08/05 03:36:04;;;;;;;1.00;0.90;;;11.20;94.10;;;;;;2056651;28;20225;-65
2021/08/05 03:37:05;;;;;;;0.57;0.57;;;11.20;94.10;;;;;;2055206;28;20501;-65
2021/08/05 03:38:05;;;;;;;0.70;0.70;;;11.20;94.10;;;;;;2057107;28;20210;-66
2021/08/05 03:39:06;;;;;;;0.40;0.40;;;11.30;94.10;;;;;;2057221;28;20214;-65
2021/08/05 03:40:07;;;;;;;1.83;1.20;;;11.30;94.20;;;;;;2057182;28;20194;-65
2021/08/05 03:41:08;;;;;;;0.93;0.93;;;11.30;94.20;;;;;;2057392;28;20222;-65
2021/08/05 03:42:09;;;;;;;1.00;0.90;;;11.30;94.20;;;;;;2056494;28;20613;-66
2021/08/05 03:43:09;;;;;;;0.40;0.40;;;11.30;94.20;;;;;;2056653;28;20209;-65
2021/08/05 03:44:10;;;;;;;0.90;0.90;;;11.30;94.30;;;;;;2056377;28;20207;-65
2021/08/05 03:45:11;;;;;;;1.30;1.20;;;11.40;94.20;;;;;;2056506;28;20205;-65
2021/08/05 03:46:12;;;;;;;2.25;1.33;;;11.40;94.20;;;;;;2057354;28;20175;-65
2021/08/05 03:47:13;;;;;;;0.67;0.67;;;11.40;94.10;;;;;;2056304;28;20209;-67
2021/08/05 03:48:13;;;;;;;0.83;0.83;;;11.50;94.20;;;;;;2056482;28;20246;-66
2021/08/05 03:49:15;;;;;;;0.80;0.80;;;11.40;94.20;;;;;;2056443;28;20171;-65
2021/08/05 03:50:16;;;;;;;1.08;0.90;;;11.40;94.20;;;;;;2056476;28;20186;-65
2021/08/05 03:51:17;;;;;;;1.08;1.05;;;11.40;94.30;;;;;;2057284;28;20179;-65
2021/08/05 03:52:17;;;;;;;0.80;0.73;;;11.40;94.20;;;;;;2056436;28;20190;-65
2021/08/05 03:53:18;;;;;;;0.80;0.80;;;11.30;94.30;;;;;;2056515;28;20182;-65
2021/08/05 03:54:19;;;;;;;0.77;0.77;;;11.30;94.20;;;;;;2056980;28;20251;-65
2021/08/05 03:55:20;;;;;;;0.90;0.90;;;11.40;94.20;;;;;;2057270;28;20218;-65
2021/08/05 03:56:20;;;;;;;1.20;0.57;;;11.30;94.10;;;;;;2059253;28;20187;-65
2021/08/05 03:57:21;;;;;;;2.10;0.97;;;11.40;94.00;;;;;;2056955;28;20183;-65
2021/08/05 03:58:22;;;;;;;0.67;0.67;;;11.40;94.00;;;;;;2056937;28;20289;-65
2021/08/05 03:59:23;;;;;;;0.63;0.53;;;11.40;94.00;;;;;;2057073;28;20705;-65
2021/08/05 04:00:23;;;;;;;0.30;0.30;;;11.50;93.90;;;;;;2057116;28;20245;-66
2021/08/05 04:01:24;;;;;;;0.77;0.77;;;11.50;93.80;;;;;;2057041;28;20171;-65
2021/08/05 04:02:25;;;;;;;1.03;0.93;;;11.50;93.70;;;;;;2056941;28;20419;-66
2021/08/05 04:03:25;;;;;;;1.10;1.00;;;11.50;93.70;;;;;;2056979;28;20183;-66
2021/08/05 04:04:26;;;;;;;0.50;0.50;;;11.50;93.70;;;;;;2056970;28;20194;-65
2021/08/05 04:05:27;;;;;;;0.93;0.83;;;11.50;93.70;;;;;;2056948;28;20582;-66
2021/08/05 04:06:28;;;;;;;0.93;0.93;;;11.50;93.70;;;;;;2056425;28;20210;-67
2021/08/05 04:07:29;;;;;;;0.30;0.30;;;11.50;93.60;;;;;;2048305;28;20659;-66
2021/08/05 04:08:30;;;;;;;0.40;0.40;;;11.50;93.60;;;;;;2056469;28;20214;-65
2021/08/05 04:09:31;;;;;;;0.70;0.70;;;11.50;93.60;;;;;;2056817;28;20214;-65
2021/08/05 04:10:31;;;;;;;1.80;0.60;;;11.50;93.70;;;;;;2057019;28;20237;-65
2021/08/05 04:11:32;;;;;;;0.70;0.70;;;11.50;93.70;;;;;;2057137;28;20175;-65
2021/08/05 04:12:33;;;;;;;0.70;0.70;;;11.50;93.60;;;;;;2057162;28;20662;-66
2021/08/05 04:13:33;;;;;;;0.40;0.40;;;11.50;93.60;;;;;;2057145;28;20221;-65
2021/08/05 04:14:34;;;;;;;0.40;0.40;;;11.50;93.50;;;;;;2056832;28;20226;-65
2021/08/05 04:15:35;;;;;;;1.03;0.60;;;11.50;93.60;;;;;;2056218;28;20203;-65
2021/08/05 04:16:35;;;;;;;0.80;0.80;;;11.50;93.60;;;;;;2056351;28;20183;-66
2021/08/05 04:17:37;;;;;;;0.50;0.50;;;11.50;93.60;;;;;;2056672;28;20183;-65
2021/08/05 04:18:37;;;;;;;0.50;0.50;;;11.50;93.60;;;;;;2057092;28;20175;-65
2021/08/05 04:19:38;;;;;;;0.40;0.40;;;11.50;93.60;;;;;;2056213;28;20547;-65
2021/08/05 04:20:39;;;;;;;0.40;0.40;;;11.50;93.50;;;;;;2056318;28;20214;-65
2021/08/05 04:21:40;;;;;;;0.87;0.87;;;11.60;93.40;;;;;;2056885;28;20216;-65
2021/08/05 04:22:40;;;;;;;0.60;0.60;;;11.60;93.30;;;;;;2056868;28;20187;-65
2021/08/05 04:23:41;;;;;;;0.90;0.90;;;11.60;93.80;;;;;;2056862;28;20187;-66
2021/08/05 04:24:42;;;;;;;0.50;0.50;;;11.70;93.30;;;;;;2056781;28;20349;-65
2021/08/05 04:25:43;;;;;;;0.60;0.50;;;11.60;93.20;;;;;;2057007;28;20213;-65
2021/08/05 04:26:43;;;;;;;0.87;0.70;;;11.60;93.20;;;;;;2056505;28;20186;-65
2021/08/05 04:27:44;;;;;;;5.13;0.77;;;11.70;93.20;;;;;;2056248;28;20419;-66
2021/08/05 04:28:45;;;;;;;0.80;0.80;;;11.70;93.20;;;;;;2056295;28;20187;-65
2021/08/05 04:29:45;;;;;;;0.70;0.70;;;11.70;93.10;;;;;;2048152;29;20219;-65
2021/08/05 04:30:46;;;;;;;0.87;0.87;;;11.70;93.20;;;;;;2048280;29;20682;-65
2021/08/05 04:31:47;;;;;;;1.07;1.03;;;11.60;93.30;;;;;;2056890;28;20265;-65
2021/08/05 04:32:48;;;;;;;0.60;0.60;;;11.60;93.30;;;;;;2056842;28;20554;-65
2021/08/05 04:33:49;;;;;;;0.98;0.98;;;11.60;93.30;;;;;;2056849;28;20567;-66
2021/08/05 04:34:49;;;;;;;0.87;0.80;;;11.60;93.30;;;;;;2056771;28;20203;-65
2021/08/05 04:35:50;;;;;;;1.60;0.47;;;11.70;93.20;;;;;;2056706;28;20187;-65
2021/08/05 04:36:51;;;;;;;1.20;1.00;;;11.60;93.20;;;;;;2056527;28;20318;-65
2021/08/05 04:37:55;;;;;;;1.53;1.43;;;11.60;93.30;;;;;;2055801;28;20654;-65
2021/08/05 04:38:56;;;;;;;0.63;0.63;;;11.60;93.30;;;;;;2048541;28;20190;-65
2021/08/05 04:39:56;;;;;;;1.20;1.10;;;11.60;93.30;;;;;;2055956;28;20282;-65
2021/08/05 04:40:57;;;;;;;1.97;1.57;;;11.70;93.30;;;;;;2056791;28;20298;-66
2021/08/05 04:41:58;;;;;;;0.70;0.70;;;11.70;93.20;;;;;;2056609;28;20271;-65
2021/08/05 04:42:59;;;;;;;1.80;1.70;;;11.70;93.20;;;;;;2056112;28;20865;-65
2021/08/05 04:44:00;;;;;;;1.27;1.10;;;11.70;93.10;;;;;;2056172;28;20190;-65
2021/08/05 04:45:01;;;;;;;0.80;0.70;;;11.70;93.20;;;;;;2056750;28;20207;-65
2021/08/05 04:46:01;;;;;;;0.40;0.40;;;11.70;93.10;;;;;;2056553;28;20238;-65
2021/08/05 04:47:03;;;;;;;3.53;0.93;;;11.80;93.10;;;;;;2056525;28;20210;-65
2021/08/05 04:48:07;;;;;;;4.20;1.38;;;11.80;93.00;;;;;;2056687;28;20258;-65
2021/08/05 04:49:07;;;;;;;1.73;1.50;;;11.80;93.00;;;;;;2055970;28;20225;-65
2021/08/05 04:50:08;;;;;;;0.57;0.57;;;11.80;93.20;;;;;;2055488;28;20187;-66
2021/08/05 04:51:09;;;;;;;3.40;1.05;;;11.80;93.20;;;;;;2056736;28;20178;-65
2021/08/05 04:52:10;;;;;;;0.80;0.80;;;11.90;93.20;;;;;;2056035;28;20654;-65
2021/08/05 04:53:16;;;;;;;1.70;0.90;;;11.90;93.10;;;;;;2056011;28;20183;-66
2021/08/05 04:54:16;;;;;;;0.90;0.85;;;11.90;93.10;;;;;;2056085;28;20167;-65
2021/08/05 04:55:18;;;;;;;1.00;1.00;;;11.90;93.20;;;;;;2055688;28;20195;-65
2021/08/05 04:56:18;;;;;;;2.20;1.30;;;11.90;93.10;;;;;;2047728;28;20191;-65
2021/08/05 04:57:19;;;;;;;1.40;1.30;;;12.00;93.00;;;;;;2047798;28;20188;-65
2021/08/05 04:58:20;;;;;;;0.97;0.77;;;12.00;92.90;;;;;;2047817;28;20288;-65
2021/08/05 04:59:20;;;;;;;0.60;0.60;;;12.10;92.70;;;;;;2047813;29;20737;-65
2021/08/05 05:00:23;;;;;;;1.63;0.93;;;12.00;92.70;;;;;;2048694;28;20191;-65
2021/08/05 05:01:24;;;;;;;1.02;0.93;;;12.00;92.70;;;;;;2047966;29;20267;-65
2021/08/05 05:02:24;;;;;;;0.80;0.80;;;12.00;92.80;;;;;;2040170;29;20184;-65
2021/08/05 05:03:25;;;;;;;0.70;0.70;;;12.00;92.90;;;;;;2048079;29;20215;-66
2021/08/05 05:04:26;;;;;;;1.33;1.13;;;12.00;92.90;;;;;;2048602;28;20192;-65
2021/08/05 05:05:28;;;;;;;1.10;0.73;;;12.10;93.00;;;;;;2048542;28;20303;-65
2021/08/05 05:06:29;;;;;;;1.10;1.00;;;12.10;92.90;;;;;;2048666;28;20597;-65
2021/08/05 05:07:30;;;;;;;1.48;1.38;;;12.20;92.90;;;;;;2047785;29;20267;-65
2021/08/05 05:08:30;;;;;;;0.90;0.90;;;12.20;92.90;;;;;;2040102;29;20187;-65
2021/08/05 05:09:31;;;;;;;0.70;0.70;;;12.20;92.60;;;;;;2047708;29;20239;-65
2021/08/05 05:10:32;;;;;;;0.93;0.93;;;12.20;92.50;;;;;;2047926;29;20276;-66
2021/08/05 05:11:32;;;;;;;0.80;0.80;;;12.30;92.50;;;;;;2047846;29;20215;-65
2021/08/05 05:12:34;;;;;;;1.10;1.00;;;12.30;92.50;;;;;;2048549;28;20214;-66
2021/08/05 05:13:35;;;;;;;0.95;0.77;;;12.40;92.30;;;;;;2048414;29;20565;-65
2021/08/05 05:14:35;;;;;;;0.90;0.90;;;12.50;92.10;;;;;;2047845;29;20278;-65
2021/08/05 05:15:36;;;;;;;1.70;0.90;;;12.50;91.90;;;;;;2047785;28;20648;-65
2021/08/05 05:16:37;;;;;;;0.83;0.83;;;12.50;91.90;;;;;;2048535;28;20191;-66
2021/08/05 05:17:40;;;;;;;0.60;0.60;;;12.50;91.60;;;;;;2039818;29;20192;-66
2021/08/05 05:18:41;;;;;;;1.15;0.95;;;12.40;91.90;;;;;;2040320;29;20239;-65
2021/08/05 05:19:42;;;;;;;1.23;1.17;;;12.40;91.90;;;;;;2048304;29;20234;-65
2021/08/05 05:20:43;;;;;;;0.53;0.53;;;12.40;92.10;;;;;;2048454;28;20274;-65
2021/08/05 05:21:43;;;;;;;0.77;0.60;;;12.40;92.30;;;;;;2048381;28;20222;-65
2021/08/05 05:22:44;;;;;;;0.40;0.40;;;12.40;92.30;;;;;;2048532;28;20180;-65
2021/08/05 05:23:45;;;;;;;1.27;1.17;;;12.40;92.30;;;;;;2048399;28;20234;-65
2021/08/05 05:24:45;;;;;;;0.70;0.70;;;12.40;92.20;;;;;;2048345;29;20637;-65